Time;durP1;ratioP1;P1;durP2;ratioP2;P2;SDS_P1;SDS_P2;PMS_P1;PMS_P2;Temp;Humidity;BMP_temperature;BMP_pressure;BME280_temperature;BME280_humidity;BME280_pressure;Samples;Min_cycle;Max_cycle;Signal;HPM_P1;HPM_P2
2021/06/21 00:02:03;;;;;;;7.35;5.60;;;23.80;64.70;;;;;;5072337;28;20032;-82
2021/06/21 00:04:28;;;;;;;11.40;5.65;;;23.80;64.70;;;;;;5072111;28;20032;-81
2021/06/21 00:06:54;;;;;;;7.43;4.97;;;23.70;64.60;;;;;;5072372;28;20417;-82
2021/06/21 00:09:20;;;;;;;8.25;5.00;;;23.80;64.90;;;;;;5072430;28;20054;-82
2021/06/21 00:11:46;;;;;;;11.00;5.10;;;23.70;65.40;;;;;;5072586;28;20479;-84
2021/06/21 00:14:12;;;;;;;9.95;6.10;;;23.70;65.90;;;;;;5072479;28;20043;-83
2021/06/21 00:16:37;;;;;;;9.93;5.28;;;23.70;65.90;;;;;;5068234;28;20477;-84
2021/06/21 00:19:03;;;;;;;6.93;5.28;;;23.60;66.30;;;;;;5073899;28;20017;-83
2021/06/21 00:21:29;;;;;;;7.15;4.90;;;23.60;66.10;;;;;;5062648;28;20041;-85
2021/06/21 00:23:55;;;;;;;8.43;4.80;;;23.60;66.30;;;;;;5057926;28;20024;-83
2021/06/21 00:26:21;;;;;;;10.88;5.45;;;23.60;66.10;;;;;;5076491;28;20028;-82
2021/06/21 00:28:47;;;;;;;6.55;4.65;;;23.60;66.60;;;;;;5077922;28;20067;-82
2021/06/21 00:31:12;;;;;;;8.35;4.80;;;23.60;66.50;;;;;;5078466;28;20084;-79
2021/06/21 00:33:38;;;;;;;11.00;5.38;;;23.50;67.00;;;;;;5053332;28;20132;-79
2021/06/21 00:36:05;;;;;;;13.20;5.78;;;23.50;67.70;;;;;;5082828;28;20600;-81
2021/06/21 00:38:31;;;;;;;6.43;5.35;;;23.50;67.40;;;;;;5079327;28;20023;-81
2021/06/21 00:40:57;;;;;;;7.88;5.95;;;23.50;67.60;;;;;;5067823;28;20498;-80
2021/06/21 00:43:23;;;;;;;12.20;6.32;;;23.50;67.60;;;;;;5053654;28;20021;-81
2021/06/21 00:45:49;;;;;;;6.57;4.90;;;23.40;67.30;;;;;;5055383;28;20032;-81
2021/06/21 00:48:14;;;;;;;11.10;5.20;;;23.40;66.60;;;;;;5055011;28;20047;-79
2021/06/21 00:50:40;;;;;;;7.78;5.10;;;23.40;66.30;;;;;;5049567;28;20028;-82
2021/06/21 00:53:06;;;;;;;10.95;4.97;;;23.40;67.10;;;;;;5053589;28;20066;-81
2021/06/21 00:55:32;;;;;;;10.15;4.85;;;23.40;66.70;;;;;;5055495;28;20025;-80
2021/06/21 00:57:58;;;;;;;6.35;5.38;;;23.40;66.20;;;;;;5055804;28;20025;-80
2021/06/21 01:00:26;;;;;;;9.90;5.45;;;23.40;66.30;;;;;;5057532;28;20144;-81
2021/06/21 01:02:53;;;;;;;9.68;5.10;;;23.40;67.00;;;;;;5071641;28;20033;-82
2021/06/21 01:05:23;;;;;;;8.03;5.43;;;23.40;66.20;;;;;;5056751;28;20013;-81
2021/06/21 01:07:49;;;;;;;6.65;4.93;;;23.40;66.10;;;;;;5055076;28;20021;-80
2021/06/21 01:10:17;;;;;;;6.07;5.43;;;23.40;66.90;;;;;;5055028;28;20021;-80
2021/06/21 01:12:46;;;;;;;7.78;5.35;;;23.40;67.50;;;;;;5053762;28;20024;-80
2021/06/21 01:15:19;;;;;;;6.60;4.88;;;23.40;67.80;;;;;;5055011;28;20009;-81
2021/06/21 01:17:52;;;;;;;10.68;5.68;;;23.30;68.00;;;;;;5054040;28;20394;-80
2021/06/21 01:21:06;;;;;;;9.63;5.45;;;23.30;68.30;;;;;;5054537;28;20557;-82
2021/06/21 01:24:14;;;;;;;7.65;5.22;;;23.30;68.20;;;;;;5054445;28;20032;-80
2021/06/21 01:26:55;;;;;;;9.20;5.57;;;23.30;68.60;;;;;;5054804;28;20013;-82
2021/06/21 01:30:01;;;;;;;8.48;5.25;;;23.30;68.80;;;;;;5054771;28;20096;-83
2021/06/21 01:32:45;;;;;;;8.13;5.78;;;23.20;68.50;;;;;;5054147;28;20025;-82
2021/06/21 01:35:35;;;;;;;9.82;5.88;;;23.20;69.30;;;;;;5054575;28;20036;-82
2021/06/21 01:38:05;;;;;;;12.68;5.72;;;23.20;69.60;;;;;;5054230;28;20079;-81
2021/06/21 01:40:40;;;;;;;8.57;5.78;;;23.20;69.70;;;;;;5062314;28;20136;-81
2021/06/21 01:43:09;;;;;;;9.07;5.35;;;23.20;70.10;;;;;;5085005;28;20366;-81
2021/06/21 01:45:36;;;;;;;9.60;4.90;;;23.30;69.60;;;;;;5088438;28;20020;-81
2021/06/21 01:48:03;;;;;;;13.98;5.47;;;23.30;69.50;;;;;;5082401;28;20035;-81
2021/06/21 01:50:30;;;;;;;9.38;5.55;;;23.30;69.40;;;;;;5081616;28;20038;-81
2021/06/21 01:53:05;;;;;;;6.35;5.50;;;23.20;69.80;;;;;;5083563;28;20024;-81
2021/06/21 01:55:33;;;;;;;13.38;6.50;;;23.30;69.40;;;;;;5096672;28;20025;-81
2021/06/21 01:58:00;;;;;;;11.55;6.25;;;23.30;70.30;;;;;;5089299;28;20012;-82
2021/06/21 02:00:27;;;;;;;;;;;23.30;70.60;;;;;;5074770;28;20148;-81
2021/06/21 02:02:55;;;;;;;11.35;6.13;;;23.30;69.50;;;;;;5058855;28;20340;-82
2021/06/21 02:05:23;;;;;;;13.75;6.82;;;23.30;71.00;;;;;;5056262;28;20028;-81
2021/06/21 02:07:50;;;;;;;10.85;5.63;;;23.30;71.50;;;;;;5073618;28;20111;-81
2021/06/21 02:10:18;;;;;;;9.00;5.72;;;23.40;71.00;;;;;;5073796;28;20020;-83
2021/06/21 02:12:46;;;;;;;8.57;5.10;;;23.50;70.30;;;;;;5039155;28;20094;-82
2021/06/21 02:15:12;;;;;;;7.00;5.65;;;23.50;69.90;;;;;;5074071;28;20038;-82
2021/06/21 02:17:38;;;;;;;8.45;6.03;;;23.60;70.00;;;;;;5087574;28;20084;-82
2021/06/21 02:20:05;;;;;;;8.57;5.25;;;23.70;69.40;;;;;;5080104;28;20019;-84
2021/06/21 02:22:31;;;;;;;6.72;5.53;;;23.80;68.50;;;;;;5084874;28;20442;-82
2021/06/21 02:25:04;;;;;;;13.07;5.90;;;23.90;68.70;;;;;;5089554;28;20017;-83
2021/06/21 02:27:31;;;;;;;11.25;5.38;;;24.00;67.50;;;;;;5093725;28;20017;-81
2021/06/21 02:29:58;;;;;;;8.03;5.07;;;24.10;66.70;;;;;;5088486;28;20459;-79
2021/06/21 02:32:24;;;;;;;12.73;5.50;;;24.20;67.00;;;;;;5098542;28;20140;-81
2021/06/21 02:34:52;;;;;;;8.85;6.25;;;24.30;67.00;;;;;;5081889;28;20051;-81
2021/06/21 02:37:18;;;;;;;12.30;6.47;;;24.40;66.50;;;;;;5087877;28;20020;-83
2021/06/21 02:39:44;;;;;;;10.23;6.00;;;24.50;65.80;;;;;;5087544;28;20020;-82
2021/06/21 02:42:11;;;;;;;12.15;6.20;;;24.60;64.70;;;;;;5075039;28;20067;-82
2021/06/21 02:44:36;;;;;;;11.30;5.45;;;24.60;64.70;;;;;;5073541;28;20013;-82
2021/06/21 02:47:04;;;;;;;11.25;5.90;;;24.70;64.50;;;;;;5070901;28;20709;-82
2021/06/21 02:49:30;;;;;;;6.53;4.88;;;24.80;63.00;;;;;;5055413;28;20103;-83
2021/06/21 02:51:56;;;;;;;9.25;5.15;;;24.80;62.60;;;;;;5062455;28;20037;-83
2021/06/21 02:55:06;;;;;;;6.05;5.20;;;24.90;62.10;;;;;;5056825;28;20077;-82
2021/06/21 02:57:56;;;;;;;9.77;4.93;;;24.90;62.00;;;;;;5054336;28;20039;-82
2021/06/21 03:00:23;;;;;;;6.65;4.97;;;25.00;62.60;;;;;;5062750;28;20020;-83
2021/06/21 03:02:49;;;;;;;9.23;5.43;;;25.20;62.40;;;;;;5072899;28;20100;-83
2021/06/21 03:05:17;;;;;;;6.57;5.45;;;25.30;61.40;;;;;;5073643;28;20063;-82
2021/06/21 03:07:47;;;;;;;11.40;4.78;;;25.50;61.00;;;;;;5073933;28;20112;-82
2021/06/21 03:10:13;;;;;;;8.18;4.88;;;25.60;60.40;;;;;;5073395;28;20376;-82
2021/06/21 03:12:44;;;;;;;10.97;4.80;;;25.70;60.40;;;;;;5054677;28;20089;-82
2021/06/21 03:15:13;;;;;;;5.65;4.32;;;25.90;60.00;;;;;;5066705;28;20258;-81
2021/06/21 03:17:39;;;;;;;8.10;4.75;;;25.90;58.90;;;;;;5067016;28;20038;-83
2021/06/21 03:20:06;;;;;;;4.47;3.80;;;26.00;57.70;;;;;;5076332;28;20020;-82
2021/06/21 03:22:32;;;;;;;7.73;3.67;;;26.00;57.50;;;;;;5058526;28;20036;-82
2021/06/21 03:24:58;;;;;;;6.43;3.55;;;26.00;56.50;;;;;;5076604;28;20013;-81
2021/06/21 03:27:29;;;;;;;6.30;3.85;;;26.00;55.60;;;;;;5091023;28;20043;-81
2021/06/21 03:29:57;;;;;;;7.55;3.88;;;26.00;55.80;;;;;;5068689;28;20063;-79
2021/06/21 03:32:35;;;;;;;8.52;3.88;;;26.10;56.20;;;;;;5072841;28;20024;-80
2021/06/21 03:35:03;;;;;;;6.88;4.50;;;26.10;56.50;;;;;;5072315;28;20025;-80
2021/06/21 03:37:30;;;;;;;8.48;5.00;;;26.20;55.90;;;;;;5072787;28;20012;-82
2021/06/21 03:39:57;;;;;;;7.57;3.78;;;26.30;55.20;;;;;;5072422;28;20056;-81
2021/06/21 03:42:23;;;;;;;8.05;3.85;;;26.40;54.80;;;;;;5053275;28;20510;-80
2021/06/21 03:44:49;;;;;;;6.68;3.67;;;26.40;55.40;;;;;;5052782;28;20552;-79
2021/06/21 03:47:16;;;;;;;6.60;3.67;;;26.60;54.70;;;;;;5052097;28;20017;-79
2021/06/21 03:49:44;;;;;;;9.02;4.70;;;26.60;54.60;;;;;;5052621;28;20033;-80
2021/06/21 03:52:10;;;;;;;13.05;4.03;;;26.70;54.20;;;;;;5052612;28;20025;-81
2021/06/21 03:54:36;;;;;;;10.65;3.30;;;26.70;54.10;;;;;;5055254;28;20009;-79
2021/06/21 03:57:03;;;;;;;10.38;3.75;;;26.70;54.50;;;;;;5056359;28;20043;-80
2021/06/21 03:59:29;;;;;;;7.82;4.00;;;26.80;53.00;;;;;;5045211;28;20028;-81
2021/06/21 04:01:57;;;;;;;7.75;4.30;;;26.80;52.80;;;;;;5056616;28;20025;-82
2021/06/21 04:04:23;;;;;;;;;;;26.70;52.80;;;;;;5057937;28;20419;-82
2021/06/21 04:06:49;;;;;;;8.33;3.80;;;26.80;53.50;;;;;;5057582;28;19905;-83
2021/06/21 04:09:14;;;;;;;6.22;3.90;;;26.80;54.00;;;;;;5045902;28;20619;-85
2021/06/21 04:11:40;;;;;;;9.23;3.70;;;26.90;53.60;;;;;;5057839;28;20112;-83
2021/06/21 04:14:06;;;;;;;6.20;3.30;;;26.90;52.50;;;;;;5057556;28;20021;-84
2021/06/21 04:16:33;;;;;;;8.82;3.78;;;26.90;52.10;;;;;;5057066;28;20055;-85
2021/06/21 04:18:59;;;;;;;7.17;3.70;;;26.90;52.90;;;;;;5048037;28;20029;-84
2021/06/21 04:21:25;;;;;;;6.05;3.72;;;26.90;53.30;;;;;;5064049;28;20034;-84
2021/06/21 04:23:51;;;;;;;7.88;3.90;;;27.00;53.40;;;;;;5063498;28;20100;-82
2021/06/21 04:26:17;;;;;;;5.93;3.47;;;27.10;53.00;;;;;;5052646;28;20023;-84
2021/06/21 04:28:43;;;;;;;6.03;3.45;;;27.10;52.80;;;;;;5026512;28;20025;-85
2021/06/21 04:31:08;;;;;;;6.97;2.90;;;27.10;52.50;;;;;;5047192;28;20087;-84
2021/06/21 04:33:34;;;;;;;8.43;3.20;;;27.10;50.70;;;;;;5045353;28;20109;-83
2021/06/21 04:36:00;;;;;;;15.05;3.47;;;27.10;52.30;;;;;;5044797;28;20030;-84
2021/06/21 04:38:26;;;;;;;6.88;3.80;;;27.10;52.40;;;;;;5056529;28;20474;-85
2021/06/21 04:40:52;;;;;;;8.00;3.30;;;27.20;52.80;;;;;;5063454;28;20068;-82
2021/06/21 04:43:19;;;;;;;9.52;3.60;;;27.40;50.60;;;;;;5076068;28;20432;-83
2021/06/21 04:45:45;;;;;;;;;;;27.40;51.00;;;;;;5064657;28;20040;-85
2021/06/21 04:48:11;;;;;;;5.13;3.27;;;27.50;51.20;;;;;;5055969;28;19904;-86
2021/06/21 04:50:39;;;;;;;9.83;3.90;;;27.50;49.80;;;;;;5050840;28;20021;-83
2021/06/21 04:53:05;;;;;;;6.40;2.83;;;27.60;49.50;;;;;;5080297;28;20186;-86
2021/06/21 04:55:32;;;;;;;8.90;3.42;;;;;;;;;;5076105;28;20433;-83
2021/06/21 04:57:57;;;;;;;6.43;3.70;;;27.70;49.20;;;;;;5075771;28;20369;-83
2021/06/21 05:00:25;;;;;;;9.55;4.15;;;27.80;50.30;;;;;;5075283;28;20262;-82
2021/06/21 05:02:52;;;;;;;5.97;3.03;;;27.80;49.80;;;;;;5075191;28;20028;-82
2021/06/21 05:05:19;;;;;;;6.30;3.13;;;27.80;50.00;;;;;;5058207;28;20036;-83
2021/06/21 05:07:50;;;;;;;4.82;3.28;;;28.00;50.00;;;;;;5075041;28;20024;-83
2021/06/21 05:10:18;;;;;;;4.38;3.17;;;28.10;49.80;;;;;;5075197;28;20021;-83
2021/06/21 05:12:44;;;;;;;6.47;3.30;;;28.20;50.20;;;;;;5061753;28;20068;-83
2021/06/21 05:15:11;;;;;;;9.40;3.20;;;28.70;49.40;;;;;;5076836;28;20420;-83
2021/06/21 05:17:38;;;;;;;;;;;29.20;48.00;;;;;;5084444;28;20386;-83
2021/06/21 05:20:04;;;;;;;;;;;30.00;48.80;;;;;;5067179;28;19957;-85
2021/06/21 05:22:30;;;;;;;10.27;4.15;;;31.00;48.30;;;;;;5071490;28;19904;-86
2021/06/21 05:24:57;;;;;;;10.03;3.73;;;32.10;44.50;;;;;;5066636;28;20171;-87
2021/06/21 05:27:23;;;;;;;12.20;3.80;;;33.00;43.00;;;;;;5068437;28;20020;-84
2021/06/21 05:29:49;;;;;;;7.93;3.87;;;33.90;41.20;;;;;;5069791;28;20501;-83
2021/06/21 05:32:16;;;;;;;7.83;3.93;;;34.50;39.70;;;;;;5052661;28;20031;-83
2021/06/21 05:34:42;;;;;;;9.02;3.42;;;35.10;38.60;;;;;;5065357;28;20031;-83
2021/06/21 05:37:08;;;;;;;5.88;3.90;;;35.20;38.30;;;;;;5071269;28;20082;-85
2021/06/21 05:39:34;;;;;;;8.53;3.87;;;35.10;37.60;;;;;;5078969;28;20020;-85
2021/06/21 05:42:00;;;;;;;5.87;3.47;;;35.00;38.20;;;;;;5074494;28;20055;-85
2021/06/21 05:44:26;;;;;;;6.43;3.47;;;;;;;;;;5070745;28;20382;-84
2021/06/21 05:46:52;;;;;;;8.27;4.05;;;35.60;38.20;;;;;;5054724;28;20025;-84
2021/06/21 05:49:18;;;;;;;10.03;4.30;;;36.40;37.00;;;;;;5075482;28;20393;-85
2021/06/21 05:51:44;;;;;;;11.87;4.73;;;36.90;36.60;;;;;;5070542;28;20033;-83
2021/06/21 05:54:10;;;;;;;13.02;4.38;;;36.50;36.50;;;;;;5088016;28;20480;-84
2021/06/21 05:56:36;;;;;;;7.45;2.35;;;36.20;36.40;;;;;;5065428;28;20377;-84
2021/06/21 05:59:02;;;;;;;3.60;1.80;;;36.40;34.20;;;;;;5073986;28;20034;-82
2021/06/21 06:01:28;;;;;;;5.75;2.00;;;35.90;34.00;;;;;;5075221;28;20027;-83
2021/06/21 06:03:54;;;;;;;3.95;2.17;;;35.60;34.40;;;;;;5060575;28;20551;-83
2021/06/21 06:06:20;;;;;;;4.68;2.30;;;35.50;34.60;;;;;;5081917;28;20141;-84
2021/06/21 06:08:46;;;;;;;2.08;1.75;;;35.40;35.40;;;;;;5083176;28;20059;-84
2021/06/21 06:11:12;;;;;;;5.43;1.85;;;35.60;33.70;;;;;;5062305;28;20028;-83
2021/06/21 06:13:38;;;;;;;3.67;1.03;;;35.30;34.10;;;;;;5072304;28;20385;-84
2021/06/21 06:16:04;;;;;;;4.00;1.60;;;35.00;33.10;;;;;;5062450;28;20032;-79
2021/06/21 06:18:30;;;;;;;3.85;1.75;;;36.10;33.40;;;;;;5070682;28;20066;-81
2021/06/21 06:20:56;;;;;;;4.50;1.77;;;37.20;32.50;;;;;;5047135;28;20111;-82
2021/06/21 06:23:22;;;;;;;5.63;1.88;;;37.40;32.50;;;;;;5055793;28;20474;-82
2021/06/21 06:25:48;;;;;;;3.95;1.58;;;39.00;32.10;;;;;;5068853;28;20024;-85
2021/06/21 06:28:13;;;;;;;1.98;1.42;;;40.20;30.40;;;;;;5064538;28;20061;-83
2021/06/21 06:30:40;;;;;;;6.55;1.75;;;41.10;30.00;;;;;;5080215;28;20371;-86
2021/06/21 06:33:06;;;;;;;3.63;2.30;;;42.10;29.10;;;;;;5056632;28;20028;-84
2021/06/21 06:35:32;;;;;;;6.07;2.60;;;43.40;29.10;;;;;;5053452;28;20043;-87
2021/06/21 06:37:59;;;;;;;6.03;2.72;;;44.00;28.50;;;;;;5074318;28;20449;-81
2021/06/21 06:40:24;;;;;;;;;;;44.00;28.00;;;;;;5082290;28;20053;-79
2021/06/21 06:42:54;;;;;;;3.85;2.10;;;44.40;29.10;;;;;;5052857;28;19912;-81
2021/06/21 06:45:21;;;;;;;7.00;2.63;;;45.00;27.40;;;;;;5026395;28;19921;-82
2021/06/21 06:47:47;;;;;;;5.03;2.40;;;44.50;27.50;;;;;;5052584;28;20028;-81
2021/06/21 06:50:14;;;;;;;6.97;2.08;;;44.90;27.60;;;;;;5052704;28;20064;-81
2021/06/21 06:52:42;;;;;;;13.07;3.33;;;45.80;27.00;;;;;;5052906;28;20020;-81
2021/06/21 06:57:54;;;;;;;4.03;2.25;;;47.60;26.40;;;;;;5052659;28;20028;-80
2021/06/21 07:00:20;;;;;;;5.53;1.75;;;48.00;25.50;;;;;;5055256;28;20032;-85
2021/06/21 07:02:46;;;;;;;3.53;1.98;;;45.50;25.90;;;;;;5055094;28;20055;-86
2021/06/21 07:05:13;;;;;;;2.88;1.92;;;44.60;26.60;;;;;;5051927;28;20029;-82
2021/06/21 07:07:40;;;;;;;5.70;2.30;;;44.70;26.80;;;;;;5053299;28;20112;-83
2021/06/21 07:10:07;;;;;;;5.50;2.33;;;44.70;27.00;;;;;;5038609;28;20017;-82
2021/06/21 07:12:33;;;;;;;3.80;2.47;;;45.10;27.30;;;;;;5041323;28;20107;-84
2021/06/21 07:14:59;;;;;;;6.07;3.00;;;45.70;27.10;;;;;;5052466;28;20108;-84
2021/06/21 07:17:25;;;;;;;6.78;2.42;;;46.30;26.70;;;;;;5034771;28;20035;-84
2021/06/21 07:19:51;;;;;;;5.13;2.10;;;46.70;26.60;;;;;;5054427;28;20025;-84
2021/06/21 07:22:17;;;;;;;5.30;2.28;;;47.00;26.30;;;;;;5034602;28;20037;-84
2021/06/21 07:24:42;;;;;;;9.55;2.33;;;46.80;26.40;;;;;;5053314;28;20029;-83
2021/06/21 07:27:08;;;;;;;6.15;2.20;;;46.90;26.20;;;;;;5053753;28;20494;-83
2021/06/21 07:29:35;;;;;;;7.60;2.72;;;46.80;26.40;;;;;;5037183;28;20020;-83
2021/06/21 07:32:01;;;;;;;7.55;2.47;;;46.30;26.10;;;;;;5058959;28;20377;-87
2021/06/21 07:34:27;;;;;;;7.35;2.35;;;46.00;26.50;;;;;;5039753;28;20025;-82
2021/06/21 07:36:52;;;;;;;8.63;2.47;;;46.60;26.40;;;;;;5057600;28;20020;-86
2021/06/21 07:39:19;;;;;;;5.45;2.67;;;47.00;26.40;;;;;;5055981;28;20055;-84
2021/06/21 07:41:44;;;;;;;8.88;2.40;;;47.00;26.30;;;;;;5056548;28;20159;-81
2021/06/21 07:44:10;;;;;;;5.93;2.40;;;47.40;26.30;;;;;;5059351;28;20489;-79
2021/06/21 07:46:36;;;;;;;8.02;3.03;;;47.90;25.90;;;;;;5062459;28;20473;-86
2021/06/21 07:49:03;;;;;;;7.43;2.40;;;48.30;25.80;;;;;;5059262;28;20063;-84
2021/06/21 07:51:32;;;;;;;3.88;2.10;;;47.90;25.40;;;;;;5060158;28;20032;-85
2021/06/21 07:53:58;;;;;;;9.18;2.28;;;46.10;25.60;;;;;;5058535;28;20017;-84
2021/06/21 07:56:24;;;;;;;5.63;2.80;;;44.20;26.80;;;;;;5062890;28;20019;-87
2021/06/21 07:58:50;;;;;;;8.18;3.58;;;44.90;27.20;;;;;;5076670;28;20097;-80
2021/06/21 08:01:16;;;;;;;6.65;2.40;;;46.00;26.80;;;;;;5071394;28;20111;-79
2021/06/21 08:03:44;;;;;;;5.93;2.20;;;47.30;25.80;;;;;;5061452;28;20028;-79
2021/06/21 08:06:11;;;;;;;3.78;1.95;;;48.00;24.90;;;;;;5056701;28;20141;-80
2021/06/21 08:08:41;;;;;;;8.35;2.33;;;46.30;25.10;;;;;;5064271;28;20020;-86
2021/06/21 08:11:08;;;;;;;7.38;3.90;;;46.10;25.50;;;;;;5064097;28;20028;-82
2021/06/21 08:13:34;;;;;;;7.57;2.10;;;46.90;25.30;;;;;;5057827;28;20045;-77
2021/06/21 08:16:01;;;;;;;7.80;1.80;;;;;;;;;;5052799;28;20142;-79
2021/06/21 08:18:26;;;;;;;9.63;2.30;;;48.50;24.00;;;;;;5062077;28;20154;-79
2021/06/21 08:20:52;;;;;;;6.10;2.28;;;47.00;24.60;;;;;;5071310;28;20498;-80
2021/06/21 08:23:19;;;;;;;5.10;2.30;;;47.30;24.80;;;;;;5079825;28;20012;-85
2021/06/21 08:25:46;;;;;;;5.43;2.03;;;48.20;25.00;;;;;;5068193;28;20065;-82
2021/06/21 08:28:12;;;;;;;5.22;2.63;;;48.10;24.60;;;;;;5063888;28;20049;-81
2021/06/21 08:30:39;;;;;;;8.15;2.38;;;47.00;25.50;;;;;;5051335;28;20357;-83
2021/06/21 08:33:05;;;;;;;5.95;2.47;;;47.70;25.30;;;;;;5060067;28;20029;-83
2021/06/21 08:35:32;;;;;;;4.80;2.17;;;48.80;25.00;;;;;;5058616;28;20095;-82
2021/06/21 08:37:58;;;;;;;4.53;1.80;;;49.80;24.10;;;;;;5041304;28;20028;-82
2021/06/21 08:40:25;;;;;;;6.03;2.10;;;47.50;24.40;;;;;;5055688;28;20116;-81
2021/06/21 08:42:51;;;;;;;7.40;2.35;;;47.50;24.70;;;;;;5054751;28;20123;-83
2021/06/21 08:45:18;;;;;;;10.15;2.65;;;48.10;24.60;;;;;;5064762;28;20021;-83
2021/06/21 08:47:45;;;;;;;7.10;2.60;;;48.50;24.30;;;;;;5040125;28;20479;-80
2021/06/21 08:50:13;;;;;;;10.52;2.13;;;48.70;24.30;;;;;;5044168;28;20508;-83
2021/06/21 08:52:43;;;;;;;6.13;2.13;;;48.80;24.10;;;;;;5020684;28;20406;-84
2021/06/21 08:55:10;;;;;;;5.65;2.10;;;49.00;24.10;;;;;;5054040;28;20538;-84
2021/06/21 08:57:40;;;;;;;4.72;2.10;;;49.10;24.30;;;;;;5054213;28;20052;-84
2021/06/21 09:00:08;;;;;;;6.90;2.30;;;48.30;24.10;;;;;;5064255;28;20091;-84
2021/06/21 09:02:35;;;;;;;9.88;2.70;;;48.00;24.60;;;;;;5047041;28;20036;-84
2021/06/21 09:05:04;;;;;;;6.47;2.45;;;48.10;24.60;;;;;;5048984;28;20014;-84
2021/06/21 09:07:30;;;;;;;2.97;1.75;;;48.30;25.20;;;;;;5044727;28;20103;-85
2021/06/21 09:09:58;;;;;;;6.53;3.05;;;48.50;24.50;;;;;;5052258;28;20056;-83
2021/06/21 09:12:32;;;;;;;3.80;2.22;;;48.70;24.80;;;;;;5045965;28;20033;-81
2021/06/21 09:15:00;;;;;;;7.28;2.65;;;49.30;24.90;;;;;;5026066;28;20021;-81
2021/06/21 09:17:28;;;;;;;5.47;2.88;;;49.40;24.70;;;;;;5056500;28;20021;-88
2021/06/21 09:20:04;;;;;;;7.28;2.38;;;49.00;25.30;;;;;;5054077;28;20483;-87
2021/06/21 09:22:35;;;;;;;9.27;3.88;;;48.20;25.00;;;;;;5054737;28;20033;-86
2021/06/21 09:25:23;;;;;;;5.97;2.53;;;48.30;25.30;;;;;;5059539;28;20044;-83
2021/06/21 09:28:01;;;;;;;5.38;2.60;;;48.00;25.20;;;;;;5049906;28;20033;-86
2021/06/21 09:30:28;;;;;;;9.75;2.90;;;46.50;25.30;;;;;;5047074;28;20013;-88
2021/06/21 09:32:58;;;;;;;7.38;2.50;;;46.40;25.60;;;;;;5041247;28;20029;-85
2021/06/21 09:35:30;;;;;;;4.88;2.75;;;47.00;26.20;;;;;;5052945;28;20029;-86
2021/06/21 09:38:07;;;;;;;8.35;3.00;;;45.30;25.80;;;;;;5051990;28;20036;-87
2021/06/21 09:40:39;;;;;;;6.70;2.30;;;43.40;27.10;;;;;;5049885;28;20119;-84
2021/06/21 09:43:27;;;;;;;6.15;2.67;;;42.00;27.80;;;;;;5039050;28;20037;-83
2021/06/21 09:46:32;;;;;;;7.57;2.40;;;40.70;28.80;;;;;;5027567;28;20356;-87
2021/06/21 09:48:58;;;;;;;7.25;3.33;;;41.20;28.90;;;;;;4995795;28;20026;-83
2021/06/21 09:51:30;;;;;;;6.32;2.35;;;41.90;28.80;;;;;;4991213;28;20631;-84
2021/06/21 09:54:04;;;;;;;5.47;2.05;;;43.70;27.90;;;;;;5002951;28;20160;-83
2021/06/21 09:56:50;;;;;;;3.25;1.77;;;44.30;26.80;;;;;;4992101;28;20109;-82
2021/06/21 09:59:17;;;;;;;6.43;2.55;;;45.00;26.40;;;;;;5007436;28;20057;-81
2021/06/21 10:01:43;;;;;;;4.90;2.33;;;45.30;25.90;;;;;;4990514;28;20177;-88
2021/06/21 10:04:22;;;;;;;4.03;2.33;;;45.10;25.80;;;;;;4988899;28;20480;-89
2021/06/21 10:06:48;;;;;;;4.18;2.15;;;45.80;25.80;;;;;;4996318;28;20129;-87
2021/06/21 10:09:14;;;;;;;7.30;2.35;;;46.30;25.40;;;;;;4994738;28;20125;-89
2021/06/21 10:11:43;;;;;;;9.60;2.95;;;46.50;25.90;;;;;;4997609;28;20122;-84
2021/06/21 10:14:11;;;;;;;5.25;2.97;;;46.00;25.80;;;;;;4993933;28;20530;-82
2021/06/21 10:16:38;;;;;;;6.90;2.80;;;45.80;26.10;;;;;;4995242;28;20407;-82
2021/06/21 10:19:05;;;;;;;6.88;2.45;;;43.60;26.90;;;;;;4997287;28;20036;-81
2021/06/21 10:21:32;;;;;;;4.75;2.60;;;43.50;27.30;;;;;;5016983;28;20086;-81
2021/06/21 10:23:59;;;;;;;9.18;2.83;;;43.60;27.50;;;;;;5043350;28;20047;-82
2021/06/21 10:26:25;;;;;;;8.30;2.63;;;44.10;27.50;;;;;;5039971;28;20390;-81
2021/06/21 10:28:53;;;;;;;6.35;3.40;;;44.40;27.20;;;;;;5047821;28;20075;-86
2021/06/21 10:31:31;;;;;;;7.60;3.95;;;44.30;27.10;;;;;;5034634;28;20029;-82
2021/06/21 10:33:59;;;;;;;7.82;3.53;;;43.20;27.60;;;;;;5023164;28;20024;-82
2021/06/21 10:36:45;;;;;;;6.75;3.20;;;41.10;28.70;;;;;;5026603;28;20034;-83
2021/06/21 10:39:15;;;;;;;5.43;3.20;;;39.30;30.30;;;;;;5059671;28;20127;-83
2021/06/21 10:42:03;;;;;;;6.50;3.25;;;38.00;31.20;;;;;;5079138;28;20532;-79
2021/06/21 10:45:00;;;;;;;9.27;3.42;;;37.10;32.70;;;;;;5085589;28;20027;-82
2021/06/21 10:47:26;;;;;;;7.32;3.60;;;36.30;33.90;;;;;;5059949;28;20020;-79
2021/06/21 10:50:21;;;;;;;10.73;4.03;;;35.70;35.50;;;;;;5072012;28;20493;-78
2021/06/21 10:52:47;;;;;;;7.18;3.35;;;35.10;35.90;;;;;;5065840;28;20094;-78
2021/06/21 10:58:04;;;;;;;4.43;3.08;;;33.70;37.10;;;;;;5074660;28;20025;-83
2021/06/21 11:00:34;;;;;;;3.97;2.58;;;33.40;38.10;;;;;;5073513;28;20029;-84
2021/06/21 11:03:01;;;;;;;5.85;2.80;;;33.00;38.20;;;;;;5074404;28;20494;-84
2021/06/21 11:05:40;;;;;;;5.05;2.95;;;32.50;39.40;;;;;;5075726;28;20031;-82
2021/06/21 11:08:14;;;;;;;6.10;3.58;;;32.50;39.60;;;;;;5063345;28;20035;-83
2021/06/21 11:10:40;;;;;;;6.47;2.97;;;32.50;40.00;;;;;;5087844;28;20339;-85
2021/06/21 11:13:36;;;;;;;7.47;3.25;;;32.50;40.20;;;;;;5075912;28;20045;-84
2021/06/21 11:16:15;;;;;;;5.57;3.10;;;32.50;39.80;;;;;;5084438;28;20445;-83
2021/06/21 11:18:41;;;;;;;8.95;3.30;;;32.50;40.30;;;;;;5061947;28;20028;-83
2021/06/21 11:21:15;;;;;;;7.07;3.50;;;32.30;39.80;;;;;;5072828;28;20023;-83
2021/06/21 11:23:45;;;;;;;5.25;2.80;;;32.40;40.40;;;;;;5085726;28;20032;-80
2021/06/21 11:26:12;;;;;;;3.53;2.38;;;32.60;39.50;;;;;;5073029;28;20020;-82
2021/06/21 11:28:39;;;;;;;10.85;3.35;;;32.50;39.00;;;;;;5074637;28;20032;-82
2021/06/21 11:31:28;;;;;;;7.35;3.75;;;32.50;39.80;;;;;;5070052;28;20072;-83
2021/06/21 11:34:01;;;;;;;6.53;3.63;;;32.50;39.80;;;;;;5068389;28;20017;-81
2021/06/21 11:36:40;;;;;;;7.05;3.08;;;32.60;40.30;;;;;;5021550;28;20064;-81
2021/06/21 11:39:22;;;;;;;8.90;2.88;;;32.70;39.00;;;;;;5059513;28;20175;-84
2021/06/21 11:41:59;;;;;;;10.18;3.05;;;32.80;39.20;;;;;;5078455;28;20133;-83
2021/06/21 11:44:39;;;;;;;4.40;2.88;;;32.70;39.60;;;;;;5073606;28;20376;-80
2021/06/21 11:47:20;;;;;;;7.32;2.90;;;32.90;39.20;;;;;;5085537;28;20024;-82
2021/06/21 11:49:49;;;;;;;5.30;2.97;;;32.70;39.60;;;;;;5068036;28;20025;-83
2021/06/21 11:52:18;;;;;;;6.28;3.10;;;32.60;40.40;;;;;;5077340;28;20520;-87
2021/06/21 11:54:45;;;;;;;12.93;3.70;;;32.30;40.60;;;;;;5065535;28;20079;-84
2021/06/21 11:57:13;;;;;;;10.30;3.85;;;32.30;41.20;;;;;;5071736;28;20115;-81
2021/06/21 11:59:41;;;;;;;7.30;3.65;;;32.30;40.70;;;;;;5092283;28;20031;-82
2021/06/21 12:02:12;;;;;;;8.00;2.70;;;32.30;40.90;;;;;;5087683;28;20040;-80
2021/06/21 12:04:39;;;;;;;6.40;2.63;;;32.30;39.40;;;;;;5072420;28;20411;-84
2021/06/21 12:07:07;;;;;;;3.38;2.80;;;32.30;38.80;;;;;;5073472;28;20162;-86
2021/06/21 12:09:52;;;;;;;4.40;2.38;;;32.50;38.00;;;;;;5082543;28;20009;-84
2021/06/21 12:12:29;;;;;;;3.53;2.20;;;32.50;37.70;;;;;;5077941;28;20020;-81
2021/06/21 12:14:55;;;;;;;2.90;2.42;;;32.50;37.40;;;;;;5047422;28;20029;-81
2021/06/21 12:17:27;;;;;;;4.38;2.50;;;32.40;36.90;;;;;;5042626;28;20162;-81
2021/06/21 12:20:19;;;;;;;7.20;2.55;;;32.30;37.20;;;;;;5053367;28;20063;-84
2021/06/21 12:23:00;;;;;;;4.18;2.15;;;32.30;36.30;;;;;;5035271;28;20127;-84
2021/06/21 12:25:47;;;;;;;4.15;2.08;;;32.20;36.30;;;;;;5047155;28;20025;-90
2021/06/21 12:28:25;;;;;;;3.75;2.55;;;31.80;36.60;;;;;;5038072;28;20087;-82
2021/06/21 12:30:51;;;;;;;4.25;2.30;;;31.60;37.30;;;;;;5034027;28;20099;-81
2021/06/21 12:33:28;;;;;;;4.47;2.77;;;31.40;37.50;;;;;;5033558;28;20462;-82
2021/06/21 12:36:07;;;;;;;3.80;2.38;;;31.20;37.60;;;;;;5033211;28;20349;-83
2021/06/21 12:38:34;;;;;;;5.15;2.80;;;31.20;38.50;;;;;;5034079;28;20497;-85
2021/06/21 12:41:10;;;;;;;5.00;2.88;;;31.50;38.10;;;;;;5033072;28;20053;-81
2021/06/21 12:43:36;;;;;;;6.28;3.85;;;31.90;38.10;;;;;;5031598;28;20101;-82
2021/06/21 12:46:14;;;;;;;4.23;2.90;;;32.10;37.50;;;;;;5031432;28;20586;-83
2021/06/21 12:48:43;;;;;;;9.98;3.70;;;32.40;37.40;;;;;;5027799;28;20022;-85
2021/06/21 12:51:11;;;;;;;7.15;2.55;;;32.50;37.30;;;;;;5036925;28;20543;-86
2021/06/21 12:53:59;;;;;;;6.38;2.65;;;32.50;38.00;;;;;;5055988;28;20044;-83
2021/06/21 12:56:27;;;;;;;7.03;2.67;;;32.40;36.40;;;;;;5022578;28;20382;-83
2021/06/21 12:58:54;;;;;;;5.03;2.72;;;32.00;37.30;;;;;;5055958;28;20021;-84
2021/06/21 13:01:24;;;;;;;;;;;32.10;37.80;;;;;;5057385;28;20037;-82
2021/06/21 13:03:50;;;;;;;6.70;2.53;;;32.30;37.50;;;;;;5064265;28;20005;-80
2021/06/21 13:06:37;;;;;;;2.97;2.40;;;32.20;37.60;;;;;;5056537;28;20497;-84